createdAt,value
2022-12-14T00:02:57.121Z,31.43
2022-12-14T00:06:00.259Z,27.53
2022-12-14T00:09:05.904Z,31.23
2022-12-14T00:12:11.286Z,33.60
2022-12-14T00:15:14.232Z,30.80
2022-12-14T00:18:22.368Z,30.93
2022-12-14T00:21:25.687Z,29.50
2022-12-14T00:24:28.810Z,29.23
2022-12-14T00:27:33.124Z,32.27
2022-12-14T00:30:36.079Z,29.63
2022-12-14T00:33:39.719Z,33.33
2022-12-14T00:36:42.722Z,25.73
2022-12-14T00:39:46.155Z,29.93
2022-12-14T00:42:50.450Z,35.17
2022-12-14T00:45:53.827Z,28.97
2022-12-14T00:48:56.822Z,31.17
2022-12-14T00:51:59.790Z,32.30
2022-12-14T00:55:02.795Z,29.57
2022-12-14T00:58:07.688Z,29.37
2022-12-14T01:01:13.529Z,28.20
2022-12-14T01:04:21.509Z,30.23
2022-12-14T01:07:24.516Z,29.97
2022-12-14T01:10:27.474Z,31.83
2022-12-14T01:13:31.810Z,36.30
2022-12-14T01:16:35.245Z,29.87
2022-12-14T01:19:38.278Z,31.83
2022-12-14T01:22:41.235Z,29.07
2022-12-14T01:25:44.331Z,29.30
2022-12-14T01:28:56.244Z,33.43
2022-12-14T01:31:59.172Z,32.73
2022-12-14T01:35:02.057Z,34.00
2022-12-14T01:38:05.036Z,31.77
2022-12-14T01:41:09.337Z,32.27
2022-12-14T01:44:49.650Z,31.17
2022-12-14T01:47:57.324Z,32.47
2022-12-14T01:51:00.420Z,32.37
2022-12-14T01:54:05.682Z,35.10
2022-12-14T01:57:08.697Z,35.87
2022-12-14T02:00:16.789Z,31.57
2022-12-14T02:03:23.409Z,32.77
2022-12-14T02:06:29.671Z,30.07
2022-12-14T02:09:35.126Z,32.50
2022-12-14T02:12:42.703Z,32.60
2022-12-14T02:15:45.957Z,32.17
2022-12-14T02:18:50.235Z,33.33
2022-12-14T02:22:11.573Z,33.07
2022-12-14T02:25:45.043Z,32.13
2022-12-14T02:29:33.823Z,34.43
2022-12-14T02:32:59.189Z,36.87
2022-12-14T02:36:07.345Z,30.03
2022-12-14T02:39:20.241Z,37.50
2022-12-14T02:42:33.256Z,37.43
2022-12-14T02:45:42.780Z,39.73
2022-12-14T02:48:53.088Z,35.93
2022-12-14T02:52:08.628Z,31.70
2022-12-14T02:55:17.870Z,31.67
2022-12-14T02:58:25.240Z,33.57
2022-12-14T03:01:31.174Z,34.23
2022-12-14T03:04:47.447Z,33.87
2022-12-14T03:07:53.671Z,34.30
2022-12-14T03:10:58.958Z,30.80
2022-12-14T03:14:07.477Z,30.80
2022-12-14T03:17:19.771Z,30.73
2022-12-14T03:20:27.785Z,32.93
2022-12-14T03:23:35.142Z,33.70
2022-12-14T03:26:47.539Z,31.50
2022-12-14T03:29:54.117Z,34.47
2022-12-14T03:33:03.031Z,30.27
2022-12-14T03:36:14.482Z,32.03
2022-12-14T03:39:24.183Z,31.73
2022-12-14T03:42:34.356Z,30.27
2022-12-14T03:45:45.650Z,30.67
2022-12-14T03:48:53.156Z,30.73
2022-12-14T03:52:01.427Z,35.07
2022-12-14T03:55:15.693Z,32.93
2022-12-14T03:58:27.101Z,31.47
2022-12-14T04:01:38.692Z,30.17
2022-12-14T04:04:48.964Z,29.80
2022-12-14T04:08:00.548Z,34.33
2022-12-14T04:11:23.659Z,31.17
2022-12-14T04:14:49.912Z,33.10
2022-12-14T04:18:13.348Z,32.37
2022-12-14T04:21:22.704Z,30.37
2022-12-14T04:24:47.872Z,34.07
2022-12-14T04:27:55.612Z,29.67
2022-12-14T04:31:00.109Z,34.43
2022-12-14T04:34:06.888Z,32.60
2022-12-14T04:37:16.466Z,34.63
2022-12-14T04:40:23.013Z,32.30
2022-12-14T04:43:29.828Z,31.83
2022-12-14T04:46:40.621Z,31.67
2022-12-14T04:49:50.495Z,30.80
2022-12-14T04:52:59.511Z,31.50
2022-12-14T04:56:08.277Z,31.63
2022-12-14T04:59:11.404Z,30.53
2022-12-14T05:02:22.304Z,29.23
2022-12-14T05:05:29.283Z,32.17
2022-12-14T05:08:55.320Z,27.67
2022-12-14T05:12:05.957Z,30.77
2022-12-14T05:15:13.064Z,29.37
2022-12-14T05:18:17.403Z,34.67
2022-12-14T05:25:03.046Z,32.07
2022-12-14T05:28:06.257Z,33.33
2022-12-14T05:31:09.268Z,31.13
2022-12-14T05:34:12.236Z,31.27
2022-12-14T05:37:18.456Z,31.30
2022-12-14T05:40:23.084Z,29.37
2022-12-14T05:43:26.552Z,32.97
2022-12-14T05:46:29.772Z,31.37
2022-12-14T05:49:32.802Z,35.93
2022-12-14T05:52:35.976Z,29.10
2022-12-14T05:55:40.215Z,30.57
2022-12-14T05:58:43.184Z,32.13
2022-12-14T06:01:49.500Z,31.47
2022-12-14T06:04:53.357Z,29.87
2022-12-14T06:07:56.274Z,31.00
2022-12-14T06:11:05.331Z,33.50
2022-12-14T06:14:08.824Z,31.67
2022-12-14T06:17:12.675Z,30.43
2022-12-14T06:20:15.836Z,30.47
2022-12-14T06:23:18.850Z,32.03
2022-12-14T06:26:24.338Z,32.33
2022-12-14T06:29:27.258Z,27.87
2022-12-14T06:32:30.170Z,31.90
2022-12-14T06:35:33.088Z,29.47
2022-12-14T06:38:36.614Z,35.00
2022-12-14T06:41:41.440Z,28.50
2022-12-14T06:44:44.408Z,29.47
2022-12-14T06:47:47.324Z,30.00
2022-12-14T06:50:50.378Z,28.83
2022-12-14T06:53:54.390Z,33.10
2022-12-14T06:56:58.655Z,32.57
2022-12-14T07:00:01.703Z,31.03
2022-12-14T07:03:04.797Z,30.13
2022-12-14T07:06:08.534Z,27.97
2022-12-14T07:09:14.604Z,30.33
2022-12-14T07:12:18.903Z,27.83
2022-12-14T07:15:22.732Z,32.77
2022-12-14T07:18:26.415Z,30.53
2022-12-14T07:21:29.399Z,28.50
2022-12-14T07:24:32.375Z,30.90
2022-12-14T07:27:36.663Z,31.07
2022-12-14T07:30:39.600Z,30.30
2022-12-14T07:33:42.793Z,33.47
2022-12-14T07:36:45.727Z,31.83
2022-12-14T07:39:48.593Z,29.97
2022-12-14T07:42:52.904Z,33.33
2022-12-14T07:46:00.707Z,36.30
2022-12-14T07:49:04.686Z,32.43
2022-12-14T07:52:07.591Z,33.57
2022-12-14T07:55:10.872Z,31.87
2022-12-14T07:58:15.237Z,27.00
2022-12-14T08:01:20.506Z,30.47
2022-12-14T08:04:23.556Z,24.67
2022-12-14T08:07:27.765Z,29.97
2022-12-14T08:10:33.364Z,32.20
2022-12-14T08:13:43.221Z,25.93
2022-12-14T08:16:46.674Z,31.27
2022-12-14T08:19:49.657Z,32.63
2022-12-14T08:22:53.270Z,29.80
2022-12-14T08:25:56.814Z,27.17
2022-12-14T08:29:01.383Z,30.00
2022-12-14T08:32:04.511Z,30.27
2022-12-14T08:35:08.268Z,30.33
2022-12-14T08:38:11.220Z,33.60
2022-12-14T08:41:15.968Z,25.60
2022-12-14T08:44:20.480Z,27.43
2022-12-14T08:47:23.460Z,26.37
2022-12-14T08:50:26.587Z,30.87
2022-12-14T08:53:29.959Z,26.20
2022-12-14T08:56:33.008Z,23.27
2022-12-14T09:00:00.785Z,31.17
2022-12-14T09:03:00.246Z,25.43
2022-12-14T09:06:04.729Z,28.17
2022-12-14T09:09:15.750Z,23.53
2022-12-14T09:12:20.718Z,25.17
2022-12-14T09:15:24.996Z,24.53
2022-12-14T09:18:28.600Z,27.27
2022-12-14T09:21:32.256Z,26.87
2022-12-14T09:24:35.295Z,29.10
2022-12-14T09:27:38.190Z,31.10
2022-12-14T09:30:42.571Z,28.67
2022-12-14T09:33:45.707Z,31.03
2022-12-14T09:36:49.278Z,29.67
2022-12-14T09:39:52.699Z,32.40
2022-12-14T09:43:01.350Z,27.83
2022-12-14T09:46:22.645Z,28.93
2022-12-14T09:49:29.973Z,26.07
2022-12-14T09:52:38.146Z,27.90
2022-12-14T09:55:45.627Z,24.40
2022-12-14T09:58:54.899Z,28.77
2022-12-14T10:02:29.544Z,26.83
2022-12-14T10:05:56.303Z,23.77
2022-12-14T10:09:09.122Z,24.90
2022-12-14T10:12:26.304Z,25.40
2022-12-14T10:15:36.795Z,30.93
2022-12-14T10:19:00.660Z,29.77
2022-12-14T10:22:12.095Z,26.50
2022-12-14T10:25:17.244Z,24.73
2022-12-14T10:28:24.497Z,25.03
2022-12-14T10:31:31.684Z,24.70
2022-12-14T10:34:37.333Z,25.00
2022-12-14T10:37:44.715Z,24.27
2022-12-14T10:40:52.062Z,25.40
2022-12-14T10:44:05.924Z,23.80
2022-12-14T10:47:16.787Z,25.33
2022-12-14T10:50:27.447Z,24.00
2022-12-14T10:53:40.855Z,26.90
2022-12-14T10:56:49.818Z,27.20
2022-12-14T11:00:07.669Z,25.03
2022-12-14T11:03:16.534Z,24.97
2022-12-14T11:06:21.268Z,23.87
2022-12-14T11:09:26.047Z,22.23
2022-12-14T11:12:29.090Z,26.43
2022-12-14T11:15:35.925Z,21.03
2022-12-14T11:18:38.903Z,28.27
2022-12-14T11:21:43.474Z,27.77
2022-12-14T11:24:48.701Z,24.07
2022-12-14T11:27:52.852Z,22.73
2022-12-14T11:30:59.048Z,23.57
2022-12-14T11:34:04.337Z,22.20
2022-12-14T11:37:21.880Z,26.30
2022-12-14T11:40:26.963Z,22.60
2022-12-14T11:43:34.529Z,23.43
2022-12-14T11:46:46.319Z,24.70
2022-12-14T11:49:54.087Z,24.87
2022-12-14T11:53:10.942Z,20.23
2022-12-14T11:56:17.207Z,24.63
2022-12-14T11:59:21.188Z,26.30
2022-12-14T12:02:28.461Z,21.10
2022-12-14T12:05:33.904Z,27.07
2022-12-14T12:08:41.031Z,26.30
2022-12-14T12:11:46.403Z,35.07
2022-12-14T12:14:55.478Z,24.43
2022-12-14T12:18:05.049Z,22.40
2022-12-14T12:21:13.001Z,21.37
2022-12-14T12:24:22.848Z,23.67
2022-12-14T12:27:26.717Z,21.90
2022-12-14T12:30:34.272Z,22.03
2022-12-14T12:33:43.141Z,21.63
2022-12-14T12:37:17.520Z,21.57
2022-12-14T12:40:17.467Z,23.83
2022-12-14T12:43:26.335Z,22.90
2022-12-14T12:46:32.017Z,20.57
2022-12-14T12:49:35.332Z,20.47
2022-12-14T12:52:55.396Z,20.13
2022-12-14T12:56:07.799Z,24.60
2022-12-14T12:59:17.893Z,28.07
2022-12-14T13:02:29.585Z,26.90
2022-12-14T13:05:50.946Z,24.23
2022-12-14T13:08:59.068Z,21.17
2022-12-14T13:12:04.512Z,19.97
2022-12-14T13:15:16.024Z,20.33
2022-12-14T13:18:56.153Z,20.50
2022-12-14T13:21:51.362Z,19.30
2022-12-14T13:24:59.208Z,23.17
2022-12-14T13:28:22.220Z,21.80
2022-12-14T13:31:37.860Z,23.23
2022-12-14T13:34:53.375Z,21.10
2022-12-14T13:38:18.977Z,23.40
2022-12-14T13:41:32.838Z,21.03
2022-12-14T13:44:56.679Z,24.27
2022-12-14T13:48:00.466Z,20.43
2022-12-14T13:51:06.211Z,21.87
2022-12-14T13:54:21.928Z,29.67
2022-12-14T13:57:26.253Z,23.43
2022-12-14T14:00:53.428Z,26.17
2022-12-14T14:04:18.500Z,25.80
2022-12-14T14:07:49.791Z,24.77
2022-12-14T14:11:02.543Z,24.40
2022-12-14T14:14:42.397Z,27.43
2022-12-14T14:17:48.346Z,27.50
2022-12-14T14:20:58.767Z,24.33
2022-12-14T14:24:19.095Z,29.30
2022-12-14T14:27:24.778Z,28.73
2022-12-14T14:30:30.329Z,26.03
2022-12-14T14:33:47.142Z,25.00
2022-12-14T14:36:51.951Z,26.53
2022-12-14T14:40:16.646Z,25.83
2022-12-14T14:43:31.223Z,24.47
2022-12-14T14:46:37.611Z,25.90
2022-12-14T14:49:43.903Z,30.00
2022-12-14T14:53:00.996Z,28.63
2022-12-14T14:56:35.411Z,29.70
2022-12-14T14:59:50.903Z,31.00
2022-12-14T15:02:56.595Z,26.90
2022-12-14T15:06:03.984Z,25.43
2022-12-14T15:09:17.352Z,27.83
2022-12-14T15:12:29.039Z,30.77
2022-12-14T15:15:37.548Z,31.47
2022-12-14T15:18:40.498Z,31.87
2022-12-14T15:21:44.870Z,31.67
2022-12-14T15:24:50.400Z,30.03
2022-12-14T15:27:53.994Z,33.17
2022-12-14T15:30:58.622Z,34.87
2022-12-14T15:34:04.019Z,33.03
2022-12-14T15:37:08.323Z,36.43
2022-12-14T15:40:16.421Z,31.80
2022-12-14T15:43:21.960Z,31.27
2022-12-14T15:46:27.208Z,34.10
2022-12-14T15:49:30.392Z,31.70
2022-12-14T15:52:35.125Z,30.70
2022-12-14T15:55:41.252Z,31.90
2022-12-14T15:58:45.202Z,32.40
2022-12-14T16:01:55.058Z,34.33
2022-12-14T16:05:03.184Z,30.70
2022-12-14T16:08:10.315Z,34.93
2022-12-14T16:11:21.730Z,32.00
2022-12-14T16:14:31.442Z,39.50
2022-12-14T16:17:37.106Z,36.30
2022-12-14T16:20:43.649Z,34.97
2022-12-14T16:23:50.095Z,38.83
2022-12-14T16:26:59.032Z,35.87
2022-12-14T16:30:21.825Z,39.70
2022-12-14T16:33:25.679Z,42.10
2022-12-14T16:36:36.555Z,37.00
2022-12-14T16:39:46.293Z,39.57
2022-12-14T16:42:49.296Z,39.53
2022-12-14T16:46:19.295Z,34.53
2022-12-14T16:49:30.164Z,41.80
2022-12-14T16:52:35.285Z,45.63
2022-12-14T16:56:00.634Z,41.60
2022-12-14T16:59:05.514Z,37.90
2022-12-14T17:02:26.397Z,41.47
2022-12-14T17:05:33.948Z,43.63
2022-12-14T17:08:37.216Z,36.97
2022-12-14T17:11:41.528Z,39.97
2022-12-14T17:14:49.808Z,46.90
2022-12-14T17:17:57.521Z,40.60
2022-12-14T17:21:00.888Z,46.23
2022-12-14T17:24:03.940Z,46.37
2022-12-14T17:27:08.242Z,45.43
2022-12-14T17:30:16.477Z,44.53
2022-12-14T17:33:19.507Z,50.20
2022-12-14T17:36:22.924Z,51.27
2022-12-14T17:39:28.569Z,51.27
2022-12-14T17:42:32.952Z,50.97
2022-12-14T17:45:36.240Z,52.27
2022-12-14T17:48:39.170Z,51.03
2022-12-14T17:51:43.968Z,55.47
2022-12-14T17:54:47.145Z,52.17
2022-12-14T17:57:52.102Z,57.97
2022-12-14T18:01:01.082Z,56.73
2022-12-14T18:04:04.432Z,60.53
2022-12-14T18:07:07.582Z,60.13
2022-12-14T18:10:14.115Z,50.83
2022-12-14T18:13:18.634Z,57.53
2022-12-14T18:16:24.486Z,55.90
2022-12-14T18:19:27.516Z,53.87
2022-12-14T18:22:30.459Z,53.07
2022-12-14T18:25:35.831Z,50.13
2022-12-14T18:28:42.268Z,50.60
2022-12-14T18:31:45.287Z,56.43
2022-12-14T18:34:52.695Z,51.67
2022-12-14T18:37:55.881Z,58.50
2022-12-14T18:41:01.628Z,53.23
2022-12-14T18:44:06.269Z,50.70
2022-12-14T18:47:39.601Z,49.87
2022-12-14T18:50:36.129Z,54.97
2022-12-14T18:53:42.543Z,55.57
2022-12-14T18:56:45.523Z,53.07
2022-12-14T18:59:54.761Z,55.70
2022-12-14T19:02:59.450Z,51.73
2022-12-14T19:06:43.066Z,59.13
2022-12-14T19:09:30.204Z,58.40
2022-12-14T19:12:33.321Z,60.47
2022-12-14T19:15:37.681Z,55.97
2022-12-14T19:18:40.682Z,60.00
2022-12-14T19:21:43.528Z,66.73
2022-12-14T19:24:52.177Z,67.20
2022-12-14T19:31:19.962Z,62.03
2022-12-14T19:34:22.923Z,62.30
2022-12-14T19:37:25.884Z,61.10
2022-12-14T19:40:28.811Z,59.87
2022-12-14T19:43:32.239Z,60.80
2022-12-14T19:46:37.010Z,58.70
2022-12-14T19:49:40.345Z,56.90
2022-12-14T19:52:43.775Z,61.20
2022-12-14T19:55:52.441Z,60.60
2022-12-14T19:58:57.685Z,67.90
2022-12-14T20:02:02.550Z,59.53
2022-12-14T20:05:06.472Z,54.03
2022-12-14T20:08:09.578Z,59.97
2022-12-14T20:11:12.735Z,63.13
2022-12-14T20:14:15.770Z,69.57
2022-12-14T20:17:20.115Z,60.53
2022-12-14T20:20:23.221Z,68.57
2022-12-14T20:23:26.172Z,68.83
2022-12-14T20:26:29.946Z,62.80
2022-12-14T20:29:33.015Z,71.80
2022-12-14T20:32:37.328Z,69.47
2022-12-14T20:35:40.592Z,66.57
2022-12-14T20:38:43.531Z,59.30
2022-12-14T20:41:46.538Z,60.40
2022-12-14T20:44:49.654Z,62.67
2022-12-14T20:47:55.424Z,79.30
2022-12-14T20:51:01.422Z,78.43
2022-12-14T20:54:05.846Z,78.07
2022-12-14T20:57:08.748Z,75.90
2022-12-14T21:00:12.906Z,80.70
2022-12-14T21:03:17.375Z,75.13
2022-12-14T21:06:23.587Z,72.87
2022-12-14T21:09:26.594Z,75.53
2022-12-14T21:12:29.544Z,71.70
2022-12-14T21:15:32.562Z,81.00
2022-12-14T21:18:36.926Z,68.93
2022-12-14T21:21:39.979Z,68.57
2022-12-14T21:28:06.310Z,52.17
2022-12-14T21:31:16.113Z,63.57
2022-12-14T21:34:22.392Z,65.23
2022-12-14T21:37:25.363Z,61.90
2022-12-14T21:40:45.854Z,61.47
2022-12-14T21:43:48.948Z,58.33
2022-12-14T21:46:52.024Z,63.00
2022-12-14T21:49:56.759Z,67.40
2022-12-14T21:52:59.877Z,61.23
2022-12-14T21:56:23.022Z,68.43
2022-12-14T21:59:27.892Z,63.33
2022-12-14T22:02:31.632Z,54.40
2022-12-14T22:05:38.722Z,62.60
2022-12-14T22:08:41.672Z,68.70
2022-12-14T22:11:45.240Z,69.90
2022-12-14T22:14:49.670Z,62.93
2022-12-14T22:17:52.661Z,66.97
2022-12-14T22:21:03.810Z,66.87
2022-12-14T22:24:07.783Z,66.20
2022-12-14T22:27:11.446Z,61.33
2022-12-14T22:30:14.956Z,61.53
2022-12-14T22:33:18.013Z,63.03
2022-12-14T22:36:23.042Z,73.83
2022-12-14T22:39:26.012Z,68.33
2022-12-14T22:42:29.056Z,63.50
2022-12-14T22:45:32.267Z,72.50
2022-12-14T22:48:37.004Z,69.77
2022-12-14T22:51:41.281Z,68.50
2022-12-14T22:54:44.319Z,61.27
2022-12-14T22:57:53.397Z,70.53
2022-12-14T23:00:56.513Z,62.37
2022-12-14T23:03:59.540Z,64.07
2022-12-14T23:07:04.056Z,61.13
2022-12-14T23:10:25.278Z,64.30
2022-12-14T23:13:45.807Z,72.27
2022-12-14T23:17:06.461Z,77.63
2022-12-14T23:20:28.365Z,74.87
2022-12-14T23:23:50.080Z,78.67
2022-12-14T23:27:10.788Z,71.10
2022-12-14T23:30:31.341Z,73.77
2022-12-14T23:33:51.746Z,70.87
2022-12-14T23:37:16.542Z,67.57
2022-12-14T23:40:41.297Z,68.70
2022-12-14T23:44:02.139Z,64.43
2022-12-14T23:47:22.743Z,67.43
2022-12-14T23:50:43.410Z,69.97
2022-12-14T23:54:04.047Z,71.73
2022-12-14T23:57:26.227Z,70.90
